Time;durP1;ratioP1;P1;durP2;ratioP2;P2;SDS_P1;SDS_P2;PMS_P1;PMS_P2;Temp;Humidity;BMP_temperature;BMP_pressure;BME280_temperature;BME280_humidity;BME280_pressure;Samples;Min_cycle;Max_cycle;Signal;HPM_P1;HPM_P2
2022/06/14 00:01:22;;;;;;;;;7.00;6.33;;;;;18.33;100.00;101736.50;5051601;28;45724;-74
2022/06/14 00:03:48;;;;;;;;;7.33;7.33;;;;;18.33;100.00;101750.38;5051412;28;45471;-74
2022/06/14 00:06:19;;;;;;;;;4.00;4.00;;;;;18.29;100.00;101734.44;5051167;28;45326;-75
2022/06/14 00:08:45;;;;;;;;;7.33;6.00;;;;;18.26;100.00;101738.50;5049541;28;45716;-74
2022/06/14 00:11:18;;;;;;;;;7.67;5.67;;;;;18.26;100.00;101737.69;5048401;28;45425;-77
2022/06/14 00:13:44;;;;;;;;;7.33;7.33;;;;;18.23;100.00;101735.38;5043149;28;45370;-77
2022/06/14 00:16:11;;;;;;;;;7.33;7.33;;;;;18.20;100.00;101745.00;5054702;28;45485;-76
2022/06/14 00:18:37;;;;;;;;;7.67;7.33;;;;;18.18;100.00;101744.41;5055938;28;46687;-75
2022/06/14 00:21:03;;;;;;;;;22.33;16.33;;;;;18.12;100.00;101729.53;5054901;28;45707;-74
2022/06/14 00:23:29;;;;;;;;;9.00;9.00;;;;;18.12;100.00;101728.69;5055603;28;45314;-75
2022/06/14 00:25:57;;;;;;;;;7.33;7.33;;;;;18.10;100.00;101737.28;5054757;28;45506;-73
2022/06/14 00:28:25;;;;;;;;;13.67;11.00;;;;;18.06;100.00;101732.41;5036305;28;46904;-74
2022/06/14 00:30:55;;;;;;;;;15.00;14.33;;;;;18.06;100.00;101736.03;5048528;28;45674;-74
2022/06/14 00:33:20;;;;;;;;;8.33;8.33;;;;;18.00;100.00;101735.03;5055077;28;45361;-76
2022/06/14 00:35:46;;;;;;;;;12.67;10.67;;;;;17.98;100.00;101740.00;5048353;28;45417;-76
2022/06/14 00:38:14;;;;;;;;;9.00;9.00;;;;;17.94;100.00;101735.16;5044863;28;46432;-72
2022/06/14 00:40:41;;;;;;;;;9.33;8.67;;;;;17.89;100.00;101729.41;5043072;28;45768;-75
2022/06/14 00:43:15;;;;;;;;;9.67;7.33;;;;;17.90;100.00;101745.00;5037640;28;45699;-74
2022/06/14 00:45:41;;;;;;;;;10.33;9.33;;;;;17.88;100.00;101731.34;5052836;28;45714;-74
2022/06/14 00:48:22;;;;;;;;;8.00;8.00;;;;;17.85;100.00;101733.75;5052295;28;45797;-73
2022/06/14 00:51:06;;;;;;;;;8.33;7.33;;;;;17.83;100.00;101740.38;5038894;28;45449;-74
2022/06/14 00:53:42;;;;;;;;;9.00;8.00;;;;;17.78;100.00;101731.91;5040959;28;45453;-74
2022/06/14 00:56:16;;;;;;;;;9.00;7.33;;;;;17.70;100.00;101723.88;5050711;28;45381;-75
2022/06/14 00:59:01;;;;;;;;;7.67;7.33;;;;;17.69;100.00;101736.06;5049282;28;46044;-73
2022/06/14 01:01:32;;;;;;;;;5.33;4.33;;;;;17.62;100.00;101727.00;5054753;28;45393;-74
2022/06/14 01:04:04;;;;;;;;;10.00;7.33;;;;;17.59;100.00;101732.97;5056710;28;45365;-73
2022/06/14 01:06:57;;;;;;;;;10.00;7.33;;;;;17.56;100.00;101733.44;5057328;28;45509;-75
2022/06/14 01:09:35;;;;;;;;;6.00;5.00;;;;;17.50;100.00;101731.59;5057632;28;46064;-74
2022/06/14 01:12:19;;;;;;;;;5.00;4.00;;;;;17.44;100.00;101730.59;5050040;28;45765;-74
2022/06/14 01:14:51;;;;;;;;;5.00;4.00;;;;;17.38;100.00;101725.97;5050183;28;45439;-74
2022/06/14 01:17:17;;;;;;;;;10.67;7.33;;;;;17.32;100.00;101724.13;5057204;28;45551;-74
2022/06/14 01:19:43;;;;;;;;;6.00;6.00;;;;;17.28;100.00;101727.34;5056611;28;46259;-75
2022/06/14 01:22:08;;;;;;;;;5.67;5.67;;;;;17.25;100.00;101726.97;5053149;28;45763;-74
2022/06/14 01:24:36;;;;;;;;;5.33;4.33;;;;;17.19;100.00;101727.91;5052255;28;45782;-74
2022/06/14 01:27:08;;;;;;;;;5.00;5.00;;;;;17.15;100.00;101713.63;5034521;28;45446;-74
2022/06/14 01:29:35;;;;;;;;;5.33;5.33;;;;;17.10;100.00;101711.53;5053805;28;45813;-74
2022/06/14 01:32:04;;;;;;;;;6.00;4.00;;;;;17.05;100.00;101714.16;5054742;28;45377;-75
2022/06/14 01:34:32;;;;;;;;;6.00;5.00;;;;;17.00;100.00;101718.69;5056097;28;45747;-76
2022/06/14 01:36:59;;;;;;;;;5.33;4.00;;;;;16.95;100.00;101711.06;5055371;28;45484;-73
2022/06/14 01:39:26;;;;;;;;;7.00;5.00;;;;;16.88;100.00;101707.50;5056163;28;46068;-74
2022/06/14 01:42:13;;;;;;;;;7.00;5.00;;;;;16.92;100.00;101717.91;5045470;28;45392;-74
2022/06/14 01:44:53;;;;;;;;;6.00;6.00;;;;;16.88;100.00;101715.81;5042486;28;45303;-75
2022/06/14 01:47:41;;;;;;;;;4.67;4.67;;;;;16.84;100.00;101709.88;5043281;28;45465;-75
2022/06/14 01:53:11;;;;;;;;;6.33;4.33;;;;;16.74;100.00;101704.81;5056008;28;46551;-74
2022/06/14 01:55:45;;;;;;;;;5.00;4.00;;;;;16.69;100.00;101704.66;5050409;28;45730;-73
2022/06/14 01:58:27;;;;;;;;;4.00;4.00;;;;;16.68;100.00;101696.59;5039901;28;45514;-74
2022/06/14 02:01:08;;;;;;;;;3.33;3.00;;;;;16.65;100.00;101700.66;5036400;28;46346;-74
2022/06/14 02:06:46;;;;;;;;;5.67;4.00;;;;;16.56;100.00;101683.47;5051555;28;45766;-73
2022/06/14 02:09:36;;;;;;;;;6.00;6.00;;;;;16.52;100.00;101689.69;5047727;28;45702;-74
2022/06/14 02:12:04;;;;;;;;;6.33;5.00;;;;;16.50;100.00;101697.38;5032892;28;46334;-72
2022/06/14 02:15:09;;;;;;;;;4.67;4.67;;;;;16.45;100.00;101684.19;5054206;28;45837;-74
2022/06/14 02:17:41;;;;;;;;;6.00;6.00;;;;;16.46;100.00;101685.88;5052670;28;45715;-74
2022/06/14 02:20:14;;;;;;;;;5.33;5.33;;;;;16.44;100.00;101690.81;5054101;28;45354;-73
2022/06/14 02:22:45;;;;;;;;;7.33;6.00;;;;;16.42;100.00;101690.16;5052862;28;45763;-73
2022/06/14 02:25:21;;;;;;;;;6.33;6.00;;;;;16.37;100.00;101681.69;5053890;28;45362;-72
2022/06/14 02:28:02;;;;;;;;;6.00;6.00;;;;;16.37;100.00;101695.53;5052343;28;45388;-74
2022/06/14 02:30:35;;;;;;;;;6.67;6.67;;;;;16.34;100.00;101688.53;5052334;28;45642;-75
2022/06/14 02:33:09;;;;;;;;;8.67;7.67;;;;;16.33;100.00;101694.28;5043947;28;45454;-74
2022/06/14 02:35:48;;;;;;;;;8.00;6.33;;;;;16.30;100.00;101703.91;5049059;28;45696;-75
2022/06/14 02:38:21;;;;;;;;;6.00;6.00;;;;;16.26;100.00;101696.25;5051865;28;45678;-75
2022/06/14 02:41:01;;;;;;;;;10.00;8.00;;;;;16.21;100.00;101691.38;5051458;28;45496;-73
2022/06/14 02:43:45;;;;;;;;;8.33;6.33;;;;;16.20;100.00;101692.47;5054193;28;46224;-74
2022/06/14 02:46:18;;;;;;;;;7.33;7.33;;;;;16.22;100.00;101690.31;5052391;28;45789;-74
2022/06/14 02:49:01;;;;;;;;;9.33;8.00;;;;;16.16;100.00;101680.16;5053256;28;45342;-74
2022/06/14 02:51:38;;;;;;;;;8.00;7.33;;;;;16.15;100.00;101686.75;5053557;28;45558;-75
2022/06/14 02:54:29;;;;;;;;;8.67;6.67;;;;;16.13;100.00;101683.38;5052706;28;46820;-74
2022/06/14 02:57:05;;;;;;;;;6.33;5.00;;;;;16.06;100.00;101683.38;5047840;28;45447;-75
2022/06/14 02:59:42;;;;;;;;;5.33;5.33;;;;;16.04;100.00;101667.00;5052783;28;45702;-74
2022/06/14 03:02:25;;;;;;;;;5.00;5.00;;;;;16.04;100.00;101677.25;5053310;28;45541;-73
2022/06/14 03:05:06;;;;;;;;;9.00;8.33;;;;;15.98;100.00;101670.69;5034829;28;47764;-72
2022/06/14 03:07:44;;;;;;;;;7.33;7.00;;;;;15.96;100.00;101663.66;5035080;28;45865;-75
2022/06/14 03:10:09;;;;;;;;;7.33;4.00;;;;;15.95;100.00;101661.97;5036094;28;45566;-74
2022/06/14 03:12:42;;;;;;;;;5.33;5.00;;;;;15.94;100.00;101666.66;5035366;28;45326;-73
2022/06/14 03:15:31;;;;;;;;;5.00;5.00;;;;;15.91;100.00;101667.09;5049149;28;46450;-73
2022/06/14 03:18:20;;;;;;;;;3.50;3.50;;;;;15.90;100.00;101676.47;5044196;28;45664;-73
2022/06/14 03:20:56;;;;;;;;;5.00;5.00;;;;;15.87;100.00;101675.00;5052717;28;45394;-74
2022/06/14 03:24:01;;;;;;;;;9.00;6.00;;;;;15.83;100.00;101664.59;5028608;28;46888;-74
2022/06/14 03:26:45;;;;;;;;;4.00;4.00;;;;;15.88;100.00;101675.84;5015387;28;47484;-74
2022/06/14 03:29:13;;;;;;;;;5.00;5.00;;;;;15.86;100.00;101673.28;5035039;28;45441;-74
2022/06/14 03:31:49;;;;;;;;;5.33;4.00;;;;;15.83;100.00;101664.59;5019348;28;45529;-75
2022/06/14 03:34:24;;;;;;;;;4.67;4.67;;;;;15.83;100.00;101676.50;5030421;28;46539;-75
2022/06/14 03:36:52;;;;;;;;;6.33;5.33;;;;;15.84;100.00;101671.84;5038044;28;45651;-74
2022/06/14 03:39:25;;;;;;;;;5.00;4.00;;;;;15.83;100.00;101667.38;5037000;28;45427;-74
2022/06/14 03:41:53;;;;;;;;;5.00;3.67;;;;;15.82;100.00;101666.53;5040713;28;45777;-75
2022/06/14 03:44:22;;;;;;;;;3.67;3.67;;;;;15.83;100.00;101665.44;5041258;28;45922;-74
2022/06/14 03:47:07;;;;;;;;;4.00;4.00;;;;;15.83;100.00;101672.91;5037089;28;46403;-73
2022/06/14 03:49:32;;;;;;;;;8.00;5.33;;;;;15.82;100.00;101668.44;5035302;28;45440;-73
2022/06/14 03:52:04;;;;;;;;;5.00;5.00;;;;;15.85;100.00;101668.84;5038304;28;45289;-74
2022/06/14 03:54:48;;;;;;;;;4.00;4.00;;;;;15.93;100.00;101664.97;5037327;28;45462;-74
2022/06/14 03:57:32;;;;;;;;;5.00;4.00;;;;;16.05;100.00;101677.03;5040303;28;46028;-74
2022/06/14 04:00:35;;;;;;;;;5.00;5.00;;;;;16.21;100.00;101666.47;5036753;28;45582;-74
2022/06/14 04:03:19;;;;;;;;;7.00;5.33;;;;;16.47;100.00;101670.13;5035310;28;45760;-74
2022/06/14 04:06:03;;;;;;;;;4.67;4.00;;;;;16.79;100.00;101661.75;5037803;28;45702;-74
2022/06/14 04:08:51;;;;;;;;;5.00;5.00;;;;;17.08;100.00;101657.41;5049931;28;46589;-75
2022/06/14 04:11:35;;;;;;;;;8.67;7.00;;;;;17.46;100.00;101651.63;5031678;28;45321;-75
2022/06/14 04:14:35;;;;;;;;;8.00;6.67;;;;;17.86;100.00;101657.72;5052708;28;45885;-75
2022/06/14 04:17:18;;;;;;;;;7.33;5.00;;;;;18.34;100.00;101654.03;5045794;28;45641;-74
2022/06/14 04:20:05;;;;;;;;;11.67;7.67;;;;;18.84;100.00;101656.34;5043118;28;45721;-75
2022/06/14 04:23:05;;;;;;;;;6.00;6.00;;;;;19.35;100.00;101650.28;5045473;28;45484;-74
2022/06/14 04:26:08;;;;;;;;;6.67;5.00;;;;;19.93;100.00;101654.81;5050966;28;45503;-75
2022/06/14 04:28:44;;;;;;;;;8.00;5.67;;;;;20.44;100.00;101645.69;5052335;28;46050;-74
2022/06/14 04:31:30;;;;;;;;;6.00;5.00;;;;;20.97;100.00;101655.47;5050478;28;45533;-74
2022/06/14 04:34:02;;;;;;;;;6.67;5.00;;;;;21.43;100.00;101649.66;5035093;28;45334;-75
2022/06/14 04:36:34;;;;;;;;;6.00;5.00;;;;;21.89;100.00;101640.13;5047375;28;45356;-75
2022/06/14 04:39:04;;;;;;;;;5.33;5.33;;;;;22.42;100.00;101637.59;5054380;28;45573;-74
2022/06/14 04:42:00;;;;;;;;;5.33;4.33;;;;;22.89;98.53;101639.63;5056452;28;45661;-73
2022/06/14 04:44:35;;;;;;;;;6.00;5.00;;;;;23.33;94.95;101639.31;5019075;28;45410;-77
2022/06/14 04:47:12;;;;;;;;;4.67;3.67;;;;;23.76;91.53;101642.84;5034229;28;45950;-75
2022/06/14 04:49:37;;;;;;;;;6.00;5.00;;;;;24.24;88.33;101641.81;5055820;28;45787;-76
2022/06/14 04:52:28;;;;;;;;;4.67;4.33;;;;;24.75;86.12;101638.19;5055564;28;45756;-75
2022/06/14 04:55:03;;;;;;;;;5.00;5.00;;;;;25.23;82.72;101637.78;5051107;28;45422;-75
2022/06/14 04:57:46;;;;;;;;;4.00;4.00;;;;;25.72;80.23;101637.00;5049172;28;45303;-75
2022/06/14 05:00:27;;;;;;;;;4.67;3.33;;;;;26.26;77.19;101635.25;5015765;28;46175;-78
2022/06/14 05:03:14;;;;;;;;;5.00;3.67;;;;;26.76;74.60;101632.31;5049697;28;45725;-74
2022/06/14 05:05:49;;;;;;;;;2.33;2.33;;;;;27.09;72.06;101632.50;5043483;28;45491;-77
2022/06/14 05:08:29;;;;;;;;;6.67;5.00;;;;;27.35;70.05;101633.06;5049252;28;45382;-74
2022/06/14 05:11:21;;;;;;;;;3.67;3.67;;;;;27.68;68.89;101629.53;5055136;28;45507;-74
2022/06/14 05:13:49;;;;;;;;;3.00;3.00;;;;;27.88;66.42;101643.31;5056546;28;45462;-76
2022/06/14 05:16:22;;;;;;;;;2.33;2.33;;;;;28.17;65.01;101643.19;5055372;28;45523;-75
2022/06/14 05:18:50;;;;;;;;;3.33;3.33;;;;;28.51;62.22;101646.84;5056530;28;45582;-76
2022/06/14 05:21:28;;;;;;;;;3.33;3.00;;;;;28.65;61.31;101636.47;5055070;28;45335;-76
2022/06/14 05:23:56;;;;;;;;;6.67;3.00;;;;;28.54;59.86;101630.13;5047429;28;46070;-74
2022/06/14 05:26:40;;;;;;;;;3.00;2.33;;;;;28.34;61.16;101639.81;5050973;28;45826;-76
2022/06/14 05:29:33;;;;;;;;;4.00;4.00;;;;;28.50;60.45;101629.09;5045055;28;45968;-76
2022/06/14 05:32:01;;;;;;;;;2.33;2.33;;;;;28.42;59.86;101631.78;5053754;28;45884;-77
2022/06/14 05:34:33;;;;;;;;;3.33;3.33;;;;;28.07;60.98;101626.44;5056457;28;45331;-77
2022/06/14 05:37:08;;;;;;;;;4.00;2.00;;;;;28.12;61.41;101622.69;5054808;28;45804;-80
2022/06/14 05:39:50;;;;;;;;;5.67;4.00;;;;;28.50;59.90;101634.75;5053331;28;45672;-79
2022/06/14 05:42:20;;;;;;;;;4.00;3.00;;;;;28.85;57.87;101631.59;5054954;28;45702;-77
2022/06/14 05:44:49;;;;;;;;;2.00;2.00;;;;;29.20;56.14;101635.69;5054940;28;46822;-79
2022/06/14 05:47:33;;;;;;;;;4.00;4.00;;;;;29.42;56.22;101639.78;5043448;28;46244;-81
2022/06/14 05:50:04;;;;;;;;;3.33;3.00;;;;;29.80;54.10;101635.84;5017078;28;45600;-79
2022/06/14 05:52:40;;;;;;;;;2.00;2.00;;;;;30.23;51.38;101638.25;5021100;28;46776;-76
2022/06/14 05:55:15;;;;;;;;;3.33;3.00;;;;;30.68;48.88;101638.22;5042872;28;45531;-75
2022/06/14 05:57:48;;;;;;;;;5.67;3.00;;;;;30.90;47.58;101640.19;5036435;28;45860;-77
2022/06/14 06:00:39;;;;;;;;;5.67;3.67;;;;;30.98;46.48;101628.06;5033074;28;45363;-77
2022/06/14 06:03:15;;;;;;;;;3.33;3.33;;;;;30.79;47.12;101633.97;5033464;28;45681;-78
2022/06/14 06:06:02;;;;;;;;;3.00;3.00;;;;;30.71;47.61;101626.25;5041981;28;46268;-78
2022/06/14 06:08:55;;;;;;;;;6.00;6.00;;;;;30.94;46.30;101629.03;5047239;28;45565;-77
2022/06/14 06:11:28;;;;;;;;;3.33;3.33;;;;;31.49;44.88;101625.72;5038784;28;45919;-77
2022/06/14 06:14:11;;;;;;;;;3.00;3.00;;;;;31.99;42.89;101623.63;5048206;28;45798;-76
2022/06/14 06:17:01;;;;;;;;;3.00;3.00;;;;;32.54;41.10;101620.06;5044628;28;45634;-78
2022/06/14 06:19:39;;;;;;;;;3.67;3.67;;;;;32.83;39.85;101624.19;5039685;28;45492;-79
2022/06/14 06:22:28;;;;;;;;;2.67;2.67;;;;;32.69;40.23;101617.88;5035387;28;45569;-77
2022/06/14 06:25:18;;;;;;;;;4.00;3.00;;;;;32.92;39.06;101609.94;5030902;28;46452;-78
2022/06/14 06:27:50;;;;;;;;;4.00;4.00;;;;;32.87;38.16;101593.09;5041326;28;48180;-79
2022/06/14 06:30:44;;;;;;;;;3.67;3.67;;;;;32.68;37.66;101611.38;5042275;28;44941;-74
2022/06/14 06:33:13;;;;;;;;;3.00;2.00;;;;;32.64;38.32;101609.53;5041087;28;45945;-77
2022/06/14 06:35:53;;;;;;;;;3.00;3.00;;;;;32.75;38.08;101599.50;5046307;28;46283;-76
2022/06/14 06:38:52;;;;;;;;;4.00;3.00;;;;;33.05;37.32;101611.72;5045208;28;45846;-77
2022/06/14 06:44:22;;;;;;;;;4.00;3.00;;;;;33.57;35.60;101618.31;5035464;28;45662;-82
2022/06/14 06:46:54;;;;;;;;;6.00;3.67;;;;;33.99;33.69;101597.59;5042093;28;46181;-80
2022/06/14 06:49:29;;;;;;;;;3.33;3.33;;;;;34.38;32.91;101606.78;5040422;28;46054;-77
2022/06/14 06:52:01;;;;;;;;;3.00;2.00;;;;;34.42;31.98;101597.19;5042921;28;45753;-78
2022/06/14 06:54:36;;;;;;;;;3.00;2.00;;;;;34.69;32.59;101600.56;5030056;28;45494;-76
2022/06/14 06:57:04;;;;;;;;;4.67;4.67;;;;;35.23;31.25;101596.69;5040211;28;46192;-76
2022/06/14 06:59:37;;;;;;;;;2.67;2.67;;;;;35.92;31.56;101596.81;5041087;28;45804;-77
2022/06/14 07:02:15;;;;;;;;;4.00;4.00;;;;;36.43;29.22;101587.66;5044743;28;45542;-77
2022/06/14 07:07:53;;;;;;;;;5.00;4.00;;;;;36.76;28.37;101595.09;5040378;28;45718;-75
2022/06/14 07:10:45;;;;;;;;;8.00;6.00;;;;;36.91;27.58;101590.56;5038121;28;46103;-76
2022/06/14 07:13:41;;;;;;;;;4.33;4.00;;;;;36.86;27.64;101591.69;5034744;28;45744;-77
2022/06/14 07:16:17;;;;;;;;;3.33;3.00;;;;;36.98;26.88;101587.91;5039053;28;47196;-77
2022/06/14 07:18:45;;;;;;;;;5.00;4.00;;;;;36.62;27.31;101578.38;5043061;28;46338;-76
2022/06/14 07:21:23;;;;;;;;;3.67;3.00;;;;;36.52;26.71;101591.19;5040389;28;46287;-78
2022/06/14 07:24:00;;;;;;;;;4.33;4.33;;;;;36.40;27.85;101585.53;5050478;28;45841;-76
2022/06/14 07:26:37;;;;;;;;;4.50;3.00;;;;;36.44;27.44;101582.78;5050966;28;45400;-76
2022/06/14 07:29:15;;;;;;;;;5.33;4.00;;;;;36.71;27.36;101578.16;5037547;28;45299;-75
2022/06/14 07:32:01;;;;;;;;;4.33;4.33;;;;;37.53;26.15;101579.38;5041592;28;46151;-77
2022/06/14 07:34:28;;;;;;;;;3.00;3.00;;;;;37.98;25.37;101574.22;5043397;28;45781;-74
2022/06/14 07:37:16;;;;;;;;;4.00;3.67;;;;;38.62;25.23;101568.09;5052529;28;45652;-76
2022/06/14 07:40:02;;;;;;;;;2.00;2.00;;;;;38.99;24.19;101567.50;5042986;28;45766;-76
2022/06/14 07:43:03;;;;;;;;;3.33;3.33;;;;;39.32;24.03;101560.25;5039076;28;46275;-77
2022/06/14 07:45:35;;;;;;;;;3.67;3.67;;;;;39.25;23.37;101572.44;5037283;28;45407;-76
2022/06/14 07:48:38;;;;;;;;;5.75;4.00;;;;;39.26;23.80;101564.69;5050579;28;45661;-76
2022/06/14 07:51:15;;;;;;;;;4.67;4.67;;;;;39.54;23.59;101559.31;5048435;28;46209;-76
2022/06/14 07:53:41;;;;;;;;;6.00;3.00;;;;;39.51;23.19;101565.00;5039531;28;45446;-76
2022/06/14 07:56:14;;;;;;;;;3.00;3.00;;;;;39.54;23.26;101553.59;5038581;28;45273;-76
2022/06/14 07:58:55;;;;;;;;;3.67;2.00;;;;;39.40;22.64;101562.00;5035973;28;45591;-76
2022/06/14 08:01:31;;;;;;;;;5.00;3.33;;;;;39.69;22.77;101548.06;5006514;28;46062;-75
2022/06/14 08:04:33;;;;;;;;;3.00;3.00;;;;;40.01;22.59;101556.25;5031279;28;46297;-75
2022/06/14 08:07:09;;;;;;;;;3.33;3.33;;;;;40.00;22.50;101545.97;5029407;28;45418;-77
2022/06/14 08:10:00;;;;;;;;;3.50;3.00;;;;;40.05;22.18;101539.91;5050937;28;45760;-78
2022/06/14 08:12:41;;;;;;;;;7.33;5.00;;;;;40.19;22.39;101530.59;5042329;28;45837;-77
2022/06/14 08:15:08;;;;;;;;;3.00;3.00;;;;;40.18;21.55;101528.94;5052193;28;47348;-76
2022/06/14 08:17:45;;;;;;;;;3.25;3.25;;;;;40.23;21.05;101525.72;5040272;28;45834;-77
2022/06/14 08:20:21;;;;;;;;;3.33;3.33;;;;;39.64;21.60;101517.63;5036623;28;45362;-77
2022/06/14 08:22:53;;;;;;;;;3.67;3.00;;;;;39.99;21.74;101524.19;5039652;28;45625;-77
2022/06/14 08:25:24;;;;;;;;;2.00;2.00;;;;;40.09;21.57;101520.63;5046390;28;45347;-76
2022/06/14 08:28:03;;;;;;;;;3.25;2.75;;;;;40.03;22.02;101527.94;5039293;28;45464;-76
2022/06/14 08:30:55;;;;;;;;;2.67;2.00;;;;;39.74;21.67;101521.84;5042802;28;45694;-78
2022/06/14 08:33:29;;;;;;;;;3.00;3.00;;;;;39.38;21.63;101530.00;5053113;28;45517;-79
2022/06/14 08:36:00;;;;;;;;;5.00;3.00;;;;;39.03;21.94;101513.91;5044541;28;46081;-76
2022/06/14 08:38:35;;;;;;;;;3.67;3.67;;;;;39.17;22.25;101514.13;5047629;28;45654;-77
2022/06/14 08:41:10;;;;;;;;;3.00;3.00;;;;;39.78;21.94;101517.00;5044429;28;45561;-77
2022/06/14 08:43:45;;;;;;;;;7.33;5.33;;;;;40.07;21.00;101511.59;5042802;28;45368;-76
2022/06/14 08:46:41;;;;;;;;;4.00;4.00;;;;;40.14;21.08;101519.44;5042856;28;45482;-79
2022/06/14 08:49:18;;;;;;;;;5.67;2.33;;;;;40.40;21.42;101507.78;5018686;28;45551;-75
2022/06/14 08:52:00;;;;;;;;;5.00;3.67;;;;;40.39;20.80;101514.78;5040967;28;45458;-78
2022/06/14 08:54:49;;;;;;;;;5.33;2.33;;;;;39.83;20.31;101513.75;5045007;28;45817;-76
2022/06/14 08:57:23;;;;;;;;;5.33;4.00;;;;;39.25;20.81;101514.22;5032604;28;45538;-76
2022/06/14 09:00:08;;;;;;;;;3.00;3.00;;;;;39.10;21.26;101505.41;5042646;28;45777;-73
2022/06/14 09:03:01;;;;;;;;;2.33;2.33;;;;;38.64;21.44;101512.06;5039367;28;45420;-76
2022/06/14 09:05:56;;;;;;;;;3.33;3.33;;;;;38.92;21.67;101518.63;5041700;28;45729;-76
2022/06/14 09:08:48;;;;;;;;;3.00;3.00;;;;;39.47;21.34;101501.81;5016963;28;45363;-79
2022/06/14 09:11:36;;;;;;;;;3.00;3.00;;;;;39.72;20.71;101507.91;5006201;28;45407;-78
2022/06/14 09:14:19;;;;;;;;;4.00;2.33;;;;;39.98;20.32;101526.22;5017492;28;45739;-77
2022/06/14 09:17:11;;;;;;;;;3.00;3.00;;;;;39.97;19.99;101513.06;5032302;28;46003;-77
2022/06/14 09:20:04;;;;;;;;;7.33;6.33;;;;;39.87;20.56;101520.38;5020323;28;47755;-78
2022/06/14 09:22:59;;;;;;;;;3.00;2.75;;;;;39.62;19.88;101511.47;5009777;28;45638;-78
2022/06/14 09:25:43;;;;;;;;;3.00;3.00;;;;;39.41;20.08;101511.16;5004654;28;45492;-79
2022/06/14 09:28:27;;;;;;;;;4.33;2.33;;;;;39.52;20.78;101495.75;5001861;28;45605;-78
2022/06/14 09:31:04;;;;;;;;;5.67;2.00;;;;;39.77;20.18;101491.53;5029858;28;45390;-77
2022/06/14 09:33:51;;;;;;;;;4.00;3.00;;;;;40.14;19.72;101502.19;5012482;28;46320;-78
2022/06/14 09:36:26;;;;;;;;;3.00;3.00;;;;;39.84;20.03;101506.81;5028721;28;46935;-79
2022/06/14 09:39:11;;;;;;;;;3.00;2.00;;;;;39.38;20.44;101496.38;5017492;28;45332;-79
2022/06/14 09:41:36;;;;;;;;;3.00;3.00;;;;;39.41;20.29;101494.75;5025298;28;45728;-78
2022/06/14 09:44:20;;;;;;;;;4.00;3.00;;;;;39.86;20.22;101504.34;5010422;28;45769;-76
2022/06/14 09:47:16;;;;;;;;;3.67;3.67;;;;;40.52;19.92;101506.69;5010631;28;46779;-75
2022/06/14 09:50:15;;;;;;;;;4.67;4.00;;;;;41.42;19.16;101500.72;4997324;28;45333;-74
2022/06/14 09:53:02;;;;;;;;;4.00;4.00;;;;;41.72;18.87;101493.84;5014833;28;45771;-76
2022/06/14 09:55:46;;;;;;;;;4.00;3.00;;;;;42.15;18.13;101508.38;5014964;28;45872;-79
2022/06/14 09:58:30;;;;;;;;;5.00;4.00;;;;;42.53;18.58;101496.47;5007562;28;45320;-79
2022/06/14 10:01:12;;;;;;;;;3.00;3.00;;;;;42.99;18.01;101502.19;5022888;28;45324;-77
2022/06/14 10:03:54;;;;;;;;;3.00;3.00;;;;;43.77;17.32;101492.88;5027713;28;46006;-81
2022/06/14 10:06:57;;;;;;;;;3.67;2.67;;;;;44.61;16.65;101483.16;5010567;28;45941;-79
2022/06/14 10:09:22;;;;;;;;;4.33;4.33;;;;;45.23;16.62;101486.25;5034146;28;45705;-78
2022/06/14 10:11:53;;;;;;;;;2.00;2.00;;;;;45.51;16.20;101478.50;5039863;28;45704;-79
2022/06/14 10:14:34;;;;;;;;;4.00;4.00;;;;;45.93;15.70;101487.84;5028905;28;48056;-81
2022/06/14 10:17:46;;;;;;;;;3.00;3.00;;;;;45.35;15.70;101448.06;5082490;22;45806;-88
2022/06/14 10:21:17;;;;;;;;;2.67;2.67;;;;;44.92;15.74;101483.31;5063294;28;45531;-88
2022/06/14 10:25:10;;;;;;;;;2.67;2.67;;;;;44.04;17.00;101479.47;5014634;28;45471;-86
2022/06/14 10:28:24;;;;;;;;;3.00;3.00;;;;;44.68;16.40;101483.13;5023617;28;45451;-86
2022/06/14 10:31:14;;;;;;;;;2.67;2.67;;;;;45.01;16.45;101469.13;5027158;28;45986;-86
2022/06/14 10:34:04;;;;;;;;;4.67;4.67;;;;;44.74;16.03;101454.56;5031359;28;45485;-88
2022/06/14 10:37:30;;;;;;;;;2.33;2.33;;;;;44.42;16.20;101436.25;5041094;28;45525;-85
2022/06/14 10:40:23;;;;;;;;;3.33;3.33;;;;;43.48;17.29;101433.19;4979362;28;45700;-88
2022/06/14 10:53:33;;;;;;;;;3.00;3.00;;;;;42.41;17.75;101442.94;4983589;28;46272;-86
2022/06/14 10:59:43;;;;;;;;;2.33;2.33;;;;;43.09;17.44;101430.44;4947849;28;44892;-83
2022/06/14 11:06:52;;;;;;;;;4.00;4.00;;;;;42.72;17.36;101421.06;4889423;28;45528;-88
2022/06/14 11:12:44;;;;;;;;;3.00;3.00;;;;;41.29;18.21;101411.84;4995419;28;45623;-84
2022/06/14 11:15:26;;;;;;;;;4.67;4.00;;;;;41.07;18.30;101395.72;5009699;28;45358;-82
2022/06/14 11:18:17;;;;;;;;;3.33;3.33;;;;;40.51;18.90;101401.56;5009893;28;46855;-85
2022/06/14 11:21:29;;;;;;;;;4.67;4.00;;;;;39.85;19.15;101402.19;5003952;28;45436;-82
2022/06/14 11:24:24;;;;;;;;;4.33;4.00;;;;;38.91;20.79;101405.13;5009051;28;45627;-83
2022/06/14 11:27:41;;;;;;;;;3.00;3.00;;;;;37.86;20.79;101402.59;5005461;28;46159;-86
2022/06/14 11:30:41;;;;;;;;;5.33;2.33;;;;;36.66;21.70;101392.69;5021805;28;46156;-86
2022/06/14 11:34:13;;;;;;;;;;;;;;;;;;;;;
2022/06/14 11:36:52;;;;;;;;;3.33;3.33;;;;;34.23;25.24;101392.66;5034370;28;68128;-82
2022/06/14 11:39:34;;;;;;;;;4.00;4.00;;;;;33.44;26.64;101375.66;5039306;28;45382;-82
2022/06/14 11:42:44;;;;;;;;;4.00;4.00;;;;;32.46;27.98;101314.28;5042209;28;45514;-88
2022/06/14 11:46:02;;;;;;;;;7.00;6.00;;;;;31.74;29.75;101331.16;5016471;28;45462;-86
2022/06/14 11:52:56;;;;;;;;;5.67;3.00;;;;;30.56;31.26;101369.03;4966832;28;44901;-88
2022/06/14 11:56:27;;;;;;;;;3.33;3.33;;;;;30.10;33.62;101369.19;4968717;28;45613;-91
2022/06/14 11:59:39;;;;;;;;;4.00;4.00;;;;;29.50;36.48;101373.34;4938043;28;45323;-85
2022/06/14 12:02:39;;;;;;;;;5.00;4.00;;;;;29.18;37.81;101378.09;4948243;28;45671;-88
2022/06/14 12:06:08;;;;;;;;;3.00;3.00;;;;;28.83;38.65;101352.41;4949398;28;44842;-88
2022/06/14 12:13:28;;;;;;;;;;;;;;;;;;;;;
2022/06/14 12:16:43;;;;;;;;;;;;;;;;;;;;;
2022/06/14 12:20:34;;;;;;;;;;;;;;;;;;;;;
2022/06/14 12:23:11;;;;;;;;;3.00;3.00;;;;;27.85;44.76;101347.94;4784324;29;45449;-85
2022/06/14 12:29:35;;;;;;;;;5.00;4.67;;;;;27.48;44.89;101291.41;4865106;29;45517;-87
2022/06/14 12:35:36;;;;;;;;;3.33;3.33;;;;;27.71;45.67;101308.47;4862984;29;45222;-85
2022/06/14 12:38:45;;;;;;;;;4.00;4.00;;;;;27.72;48.39;101321.41;4891981;29;44922;-88
2022/06/14 12:41:54;;;;;;;;;4.00;4.00;;;;;27.58;49.47;101304.47;4885584;29;45662;-86
2022/06/14 12:44:38;;;;;;;;;3.33;3.33;;;;;27.55;48.64;101319.19;4875977;28;45883;-85
2022/06/14 12:50:48;;;;;;;;;5.00;5.00;;;;;27.43;49.84;101313.22;5034865;28;45876;-87
2022/06/14 12:57:22;;;;;;;;;4.67;4.67;;;;;27.36;50.79;101332.50;4972129;28;44942;-89
2022/06/14 13:00:51;;;;;;;;;5.67;4.67;;;;;27.25;51.69;101329.81;4969081;28;45605;-89
2022/06/14 13:03:33;;;;;;;;;4.67;4.33;;;;;27.24;51.37;101316.88;4936008;28;45536;-84
2022/06/14 13:07:01;;;;;;;;;7.33;4.33;;;;;27.09;53.54;101286.19;5007408;28;45597;-89
2022/06/14 13:09:42;;;;;;;;;5.67;3.33;;;;;27.21;52.68;101311.88;4998296;28;45270;-83
2022/06/14 13:12:20;;;;;;;;;5.67;5.00;;;;;26.92;52.05;101259.44;4998142;28;45582;-87
2022/06/14 13:15:01;;;;;;;;;3.67;3.67;;;;;27.23;49.46;101305.94;5044913;28;45393;-86
2022/06/14 13:18:03;;;;;;;;;8.00;4.67;;;;;27.23;49.59;101295.50;5047128;28;45179;-88
2022/06/14 13:20:45;;;;;;;;;6.67;3.67;;;;;27.16;50.62;101269.72;5040959;28;45823;-87
2022/06/14 13:23:21;;;;;;;;;4.00;4.00;;;;;27.44;50.39;101304.47;5042354;28;45372;-85
2022/06/14 13:26:02;;;;;;;;;4.00;4.00;;;;;27.54;49.50;101311.88;5042049;28;45360;-86
2022/06/14 13:29:15;;;;;;;;;6.33;4.33;;;;;27.61;49.58;101301.03;5042341;28;45443;-89
2022/06/14 13:32:01;;;;;;;;;5.00;5.00;;;;;27.68;52.68;101282.88;5051534;28;45604;-86
2022/06/14 13:34:45;;;;;;;;;5.67;4.00;;;;;27.75;54.58;101286.13;5059496;28;46701;-88